createdAt,value
2022-10-22T00:01:06.079Z,65.50
2022-10-22T00:03:33.972Z,65.55
2022-10-22T00:06:01.913Z,65.77
2022-10-22T00:08:30.272Z,65.68
2022-10-22T00:10:58.601Z,65.56
2022-10-22T00:13:28.209Z,65.33
2022-10-22T00:15:56.240Z,65.29
2022-10-22T00:18:24.181Z,65.37
2022-10-22T00:20:52.097Z,65.17
2022-10-22T00:23:19.993Z,65.06
2022-10-22T00:25:48.909Z,64.77
2022-10-22T00:28:16.780Z,64.61
2022-10-22T00:30:46.255Z,64.52
2022-10-22T00:33:14.460Z,64.35
2022-10-22T00:35:42.379Z,64.39
2022-10-22T00:38:10.284Z,64.25
2022-10-22T00:40:38.193Z,64.20
2022-10-22T00:43:06.162Z,64.11
2022-10-22T00:45:34.118Z,64.04
2022-10-22T00:48:06.718Z,63.65
2022-10-22T00:50:36.977Z,63.32
2022-10-22T00:53:07.601Z,63.05
2022-10-22T00:55:36.201Z,62.80
2022-10-22T00:58:05.041Z,62.55
2022-10-22T01:00:33.151Z,62.26
2022-10-22T01:03:02.936Z,61.95
2022-10-22T01:05:34.123Z,61.56
2022-10-22T01:08:01.973Z,61.39
2022-10-22T01:10:47.259Z,61.19
2022-10-22T01:13:27.471Z,60.67
2022-10-22T01:16:00.408Z,60.03
2022-10-22T01:18:39.259Z,59.66
2022-10-22T01:21:20.987Z,59.20
2022-10-22T01:24:29.071Z,58.78
2022-10-22T01:27:16.405Z,58.31
2022-10-22T01:29:49.494Z,57.79
2022-10-22T01:32:20.168Z,57.52
2022-10-22T01:34:58.524Z,57.46
2022-10-22T01:37:30.564Z,56.94
2022-10-22T01:40:00.246Z,56.61
2022-10-22T01:42:28.308Z,56.04
2022-10-22T01:44:57.466Z,55.87
2022-10-22T01:47:41.507Z,55.76
2022-10-22T01:50:38.996Z,55.39
2022-10-22T01:53:18.802Z,55.20
2022-10-22T01:55:57.584Z,54.87
2022-10-22T01:58:38.453Z,54.63
2022-10-22T02:01:14.337Z,54.33
2022-10-22T02:03:50.432Z,54.07
2022-10-22T02:06:21.209Z,53.88
2022-10-22T02:08:51.232Z,53.67
2022-10-22T02:11:19.138Z,53.45
2022-10-22T02:13:49.534Z,53.21
2022-10-22T02:16:23.916Z,53.03
2022-10-22T02:18:56.560Z,52.80
2022-10-22T02:21:24.643Z,52.52
2022-10-22T02:23:52.513Z,52.46
2022-10-22T02:26:24.616Z,52.29
2022-10-22T02:28:59.809Z,52.13
2022-10-22T02:31:32.414Z,51.83
2022-10-22T02:34:07.894Z,51.61
2022-10-22T02:36:36.293Z,51.48
2022-10-22T02:39:05.284Z,51.29
2022-10-22T02:41:33.678Z,51.13
2022-10-22T02:44:02.738Z,51.05
2022-10-22T02:46:32.227Z,50.93
2022-10-22T02:49:00.136Z,50.79
2022-10-22T02:51:28.258Z,50.60
2022-10-22T02:53:56.082Z,50.62
2022-10-22T02:56:24.021Z,50.45
2022-10-22T02:58:51.859Z,50.28
2022-10-22T03:01:19.813Z,50.08
2022-10-22T03:03:49.121Z,49.97
2022-10-22T03:06:18.042Z,49.88
2022-10-22T03:08:46.068Z,49.73
2022-10-22T03:11:13.912Z,49.67
2022-10-22T03:13:42.064Z,49.67
2022-10-22T03:16:09.965Z,49.56
2022-10-22T03:18:37.968Z,49.55
2022-10-22T03:21:11.571Z,49.58
2022-10-22T03:23:41.434Z,49.45
2022-10-22T03:26:11.299Z,49.38
2022-10-22T03:28:41.391Z,49.29
2022-10-22T03:31:09.263Z,49.30
2022-10-22T03:33:37.088Z,49.24
2022-10-22T03:36:05.323Z,49.16
2022-10-22T03:38:36.230Z,49.19
2022-10-22T03:41:04.296Z,49.23
2022-10-22T03:43:32.177Z,49.21
2022-10-22T03:46:00.006Z,49.18
2022-10-22T03:48:28.016Z,49.17
2022-10-22T03:50:55.807Z,49.25
2022-10-22T03:53:23.548Z,49.13
2022-10-22T03:55:52.764Z,49.10
2022-10-22T03:58:20.548Z,48.92
2022-10-22T04:00:48.418Z,48.91
2022-10-22T04:03:16.565Z,48.87
2022-10-22T04:05:44.541Z,48.67
2022-10-22T04:08:12.485Z,48.44
2022-10-22T04:10:40.363Z,48.39
2022-10-22T04:13:09.631Z,48.19
2022-10-22T04:15:37.525Z,48.09
2022-10-22T04:18:05.531Z,48.03
2022-10-22T04:20:33.422Z,47.96
2022-10-22T04:23:01.343Z,47.81
2022-10-22T04:25:29.394Z,47.78
2022-10-22T04:27:57.239Z,47.72
2022-10-22T04:30:26.623Z,47.68
2022-10-22T04:32:54.627Z,47.76
2022-10-22T04:35:22.656Z,47.63
2022-10-22T04:37:50.562Z,47.55
2022-10-22T04:40:18.514Z,47.49
2022-10-22T04:42:46.416Z,47.48
2022-10-22T04:45:15.647Z,47.51
2022-10-22T04:47:45.265Z,47.59
2022-10-22T04:50:13.140Z,47.51
2022-10-22T04:52:41.123Z,47.44
2022-10-22T04:55:09.787Z,47.42
2022-10-22T04:57:37.811Z,47.40
2022-10-22T05:00:06.914Z,47.38
2022-10-22T05:02:34.815Z,47.36
2022-10-22T05:05:04.976Z,47.35
2022-10-22T05:07:33.008Z,47.24
2022-10-22T05:10:02.285Z,47.32
2022-10-22T05:12:30.981Z,47.33
2022-10-22T05:14:58.875Z,47.42
2022-10-22T05:17:27.256Z,47.38
2022-10-22T05:19:55.292Z,47.42
2022-10-22T05:22:24.556Z,47.41
2022-10-22T05:24:52.477Z,47.55
2022-10-22T05:27:20.426Z,47.51
2022-10-22T05:29:48.346Z,47.56
2022-10-22T05:32:16.393Z,47.50
2022-10-22T05:34:44.306Z,47.50
2022-10-22T05:37:12.236Z,47.43
2022-10-22T05:39:41.672Z,47.57
2022-10-22T05:42:09.572Z,47.53
2022-10-22T05:44:38.977Z,47.53
2022-10-22T05:47:07.108Z,47.48
2022-10-22T05:49:39.656Z,47.49
2022-10-22T05:52:07.677Z,47.36
2022-10-22T05:54:35.585Z,47.40
2022-10-22T05:57:05.185Z,47.39
2022-10-22T05:59:33.297Z,47.36
2022-10-22T06:02:01.590Z,47.19
2022-10-22T06:04:29.630Z,47.33
2022-10-22T06:06:57.582Z,47.27
2022-10-22T06:09:29.493Z,47.38
2022-10-22T06:11:58.646Z,47.25
2022-10-22T06:14:28.883Z,47.21
2022-10-22T06:17:02.427Z,47.21
2022-10-22T06:19:32.750Z,47.17
2022-10-22T06:22:02.727Z,47.14
2022-10-22T06:24:30.861Z,47.04
2022-10-22T06:26:58.739Z,47.08
2022-10-22T06:29:28.228Z,47.08
2022-10-22T06:31:56.133Z,47.10
2022-10-22T06:34:24.091Z,47.09
2022-10-22T06:36:58.165Z,47.08
2022-10-22T06:39:41.618Z,47.11
2022-10-22T06:42:11.168Z,47.06
2022-10-22T06:44:42.220Z,47.08
2022-10-22T06:47:10.144Z,47.08
2022-10-22T06:49:38.148Z,47.05
2022-10-22T06:52:06.443Z,47.06
2022-10-22T06:54:34.574Z,47.05
2022-10-22T06:57:02.489Z,47.05
2022-10-22T06:59:30.660Z,47.09
2022-10-22T07:01:59.973Z,47.03
2022-10-22T07:04:28.035Z,46.91
2022-10-22T07:06:56.464Z,46.94
2022-10-22T07:09:24.474Z,46.87
2022-10-22T07:11:52.427Z,46.77
2022-10-22T07:14:20.325Z,46.93
2022-10-22T07:16:48.323Z,47.03
2022-10-22T07:19:17.610Z,47.19
2022-10-22T07:21:46.078Z,47.40
2022-10-22T07:24:14.017Z,47.65
2022-10-22T07:26:41.868Z,48.06
2022-10-22T07:29:10.093Z,48.42
2022-10-22T07:31:37.911Z,48.87
2022-10-22T07:34:05.702Z,49.31
2022-10-22T07:36:34.986Z,49.83
2022-10-22T07:39:03.255Z,50.27
2022-10-22T07:41:31.725Z,50.87
2022-10-22T07:44:00.271Z,51.46
2022-10-22T07:46:28.544Z,51.83
2022-10-22T07:48:56.644Z,52.53
2022-10-22T07:51:24.578Z,53.19
2022-10-22T07:53:53.868Z,54.18
2022-10-22T07:56:21.870Z,55.45
2022-10-22T07:58:50.171Z,56.63
2022-10-22T08:01:18.527Z,57.69
2022-10-22T08:03:46.602Z,59.52
2022-10-22T08:06:15.761Z,61.30
2022-10-22T08:08:45.747Z,63.38
2022-10-22T08:11:15.447Z,65.67
2022-10-22T08:13:45.598Z,68.26
2022-10-22T08:16:14.880Z,70.75
2022-10-22T08:18:43.150Z,72.86
2022-10-22T08:21:11.424Z,75.19
2022-10-22T08:23:40.010Z,77.90
2022-10-22T08:26:08.080Z,81.28
2022-10-22T08:28:37.934Z,85.77
2022-10-22T08:31:07.475Z,91.63
2022-10-22T08:33:35.800Z,94.89
2022-10-22T08:36:03.816Z,100.00
2022-10-22T08:38:32.426Z,100.00
2022-10-22T08:41:08.822Z,100.00
2022-10-22T08:44:08.706Z,100.00
2022-10-22T08:46:53.149Z,100.00
2022-10-22T08:49:24.101Z,100.00
2022-10-22T08:51:52.486Z,100.00
2022-10-22T08:54:38.950Z,100.00
2022-10-22T08:57:23.837Z,100.00
2022-10-22T08:59:59.234Z,100.00
2022-10-22T09:02:41.614Z,100.00
2022-10-22T09:05:24.621Z,100.00
2022-10-22T09:07:53.120Z,100.00
2022-10-22T09:10:26.526Z,100.00
2022-10-22T09:12:54.546Z,100.00
2022-10-22T09:15:23.713Z,100.00
2022-10-22T09:18:03.862Z,100.00
2022-10-22T09:20:39.767Z,100.00
2022-10-22T09:23:24.568Z,100.00
2022-10-22T09:25:53.324Z,100.00
2022-10-22T09:28:21.476Z,100.00
2022-10-22T09:30:51.026Z,100.00
2022-10-22T09:33:23.986Z,100.00
2022-10-22T09:35:55.597Z,100.00
2022-10-22T09:38:27.201Z,100.00
2022-10-22T09:40:57.189Z,100.00
2022-10-22T09:43:25.914Z,100.00
2022-10-22T09:46:00.093Z,100.00
2022-10-22T09:48:32.066Z,100.00
2022-10-22T09:51:05.675Z,100.00
2022-10-22T09:53:40.513Z,100.00
2022-10-22T09:56:11.028Z,100.00
2022-10-22T09:58:46.569Z,100.00
2022-10-22T10:01:20.563Z,100.00
2022-10-22T10:03:49.989Z,100.00
2022-10-22T10:06:20.574Z,100.00
2022-10-22T10:08:49.347Z,100.00
2022-10-22T10:11:29.070Z,100.00
2022-10-22T10:14:08.745Z,100.00
2022-10-22T10:16:52.327Z,100.00
2022-10-22T10:19:44.203Z,100.00
2022-10-22T10:22:23.779Z,100.00
2022-10-22T10:25:13.662Z,100.00
2022-10-22T10:27:45.028Z,100.00
2022-10-22T10:30:17.182Z,100.00
2022-10-22T10:32:59.587Z,100.00
2022-10-22T10:35:31.396Z,100.00
2022-10-22T10:38:17.103Z,100.00
2022-10-22T10:40:51.423Z,100.00
2022-10-22T10:43:26.141Z,100.00
2022-10-22T10:46:03.318Z,100.00
2022-10-22T10:48:48.079Z,100.00
2022-10-22T10:51:30.407Z,100.00
2022-10-22T10:54:16.502Z,100.00
2022-10-22T10:56:48.409Z,100.00
2022-10-22T10:59:20.765Z,100.00
2022-10-22T11:02:00.652Z,100.00
2022-10-22T11:04:50.919Z,100.00
2022-10-22T11:07:34.211Z,100.00
2022-10-22T11:10:10.375Z,100.00
2022-10-22T11:12:43.529Z,100.00
2022-10-22T11:15:23.809Z,100.00
2022-10-22T11:17:54.119Z,100.00
2022-10-22T11:20:27.880Z,100.00
2022-10-22T11:23:18.846Z,100.00
2022-10-22T11:25:50.493Z,100.00
2022-10-22T11:28:25.682Z,100.00
2022-10-22T11:30:59.362Z,100.00
2022-10-22T11:33:33.895Z,100.00
2022-10-22T11:36:04.981Z,100.00
2022-10-22T11:38:35.766Z,100.00
2022-10-22T11:41:07.785Z,100.00
2022-10-22T11:43:52.522Z,100.00
2022-10-22T11:46:40.821Z,100.00
2022-10-22T11:49:23.253Z,100.00
2022-10-22T11:51:53.419Z,100.00
2022-10-22T11:54:42.313Z,100.00
2022-10-22T11:57:25.614Z,100.00
2022-10-22T11:59:57.852Z,100.00
2022-10-22T12:02:44.866Z,100.00
2022-10-22T12:05:43.976Z,100.00
2022-10-22T12:08:27.641Z,100.00
2022-10-22T12:11:07.312Z,100.00
2022-10-22T12:13:58.544Z,100.00
2022-10-22T12:16:44.094Z,100.00
2022-10-22T12:19:19.580Z,100.00
2022-10-22T12:21:51.040Z,100.00
2022-10-22T12:24:23.047Z,100.00
2022-10-22T12:26:52.675Z,100.00
2022-10-22T12:29:23.959Z,100.00
2022-10-22T12:31:51.939Z,100.00
2022-10-22T12:34:24.326Z,100.00
2022-10-22T12:36:53.635Z,100.00
2022-10-22T12:39:26.284Z,100.00
2022-10-22T12:41:55.253Z,100.00
2022-10-22T12:44:23.155Z,100.00
2022-10-22T12:46:54.612Z,100.00
2022-10-22T12:49:34.050Z,100.00
2022-10-22T12:52:04.173Z,100.00
2022-10-22T12:54:35.508Z,100.00
2022-10-22T12:57:03.590Z,100.00
2022-10-22T12:59:35.832Z,100.00
2022-10-22T13:02:11.302Z,100.00
2022-10-22T13:04:39.834Z,100.00
2022-10-22T13:07:21.283Z,100.00
2022-10-22T13:10:00.999Z,100.00
2022-10-22T13:12:36.340Z,100.00
2022-10-22T13:15:20.346Z,100.00
2022-10-22T13:17:49.526Z,100.00
2022-10-22T13:20:20.982Z,100.00
2022-10-22T13:22:58.386Z,100.00
2022-10-22T13:25:29.532Z,100.00
2022-10-22T13:27:59.569Z,100.00
2022-10-22T13:30:29.780Z,100.00
2022-10-22T13:33:00.102Z,100.00
2022-10-22T13:35:32.042Z,100.00
2022-10-22T13:38:00.748Z,100.00
2022-10-22T13:40:30.385Z,100.00
2022-10-22T13:42:58.290Z,100.00
2022-10-22T13:45:26.213Z,100.00
2022-10-22T13:47:57.033Z,100.00
2022-10-22T13:50:25.061Z,100.00
2022-10-22T13:52:55.462Z,100.00
2022-10-22T13:55:26.687Z,100.00
2022-10-22T13:57:57.364Z,100.00
2022-10-22T14:00:25.876Z,100.00
2022-10-22T14:02:58.181Z,100.00
2022-10-22T14:05:26.214Z,100.00
2022-10-22T14:07:54.579Z,100.00
2022-10-22T14:10:24.088Z,100.00
2022-10-22T14:12:53.554Z,100.00
2022-10-22T14:15:25.060Z,100.00
2022-10-22T14:17:57.334Z,100.00
2022-10-22T14:20:28.855Z,100.00
2022-10-22T14:22:57.658Z,100.00
2022-10-22T14:25:27.090Z,100.00
2022-10-22T14:27:56.524Z,100.00
2022-10-22T14:30:29.639Z,100.00
2022-10-22T14:33:01.911Z,100.00
2022-10-22T14:35:30.226Z,100.00
2022-10-22T14:37:58.829Z,100.00
2022-10-22T14:40:26.935Z,100.00
2022-10-22T14:42:55.117Z,100.00
2022-10-22T14:45:26.883Z,100.00
2022-10-22T14:48:00.403Z,100.00
2022-10-22T14:50:28.599Z,100.00
2022-10-22T14:52:59.799Z,100.00
2022-10-22T14:55:29.067Z,100.00
2022-10-22T14:57:58.005Z,100.00
2022-10-22T15:00:27.557Z,100.00
2022-10-22T15:03:06.813Z,100.00
2022-10-22T15:05:36.312Z,100.00
2022-10-22T15:08:04.813Z,100.00
2022-10-22T15:10:32.949Z,100.00
2022-10-22T15:13:01.027Z,100.00
2022-10-22T15:15:34.083Z,100.00
2022-10-22T15:18:05.914Z,100.00
2022-10-22T15:20:36.394Z,100.00
2022-10-22T15:23:04.690Z,100.00
2022-10-22T15:25:33.148Z,100.00
2022-10-22T15:28:09.219Z,100.00
2022-10-22T15:30:39.253Z,100.00
2022-10-22T15:33:07.287Z,100.00
2022-10-22T15:35:35.413Z,100.00
2022-10-22T15:38:09.201Z,100.00
2022-10-22T15:40:38.685Z,100.00
2022-10-22T15:43:06.713Z,100.00
2022-10-22T15:45:34.741Z,100.00
2022-10-22T15:48:04.228Z,100.00
2022-10-22T15:50:32.677Z,100.00
2022-10-22T15:53:00.579Z,100.00
2022-10-22T15:55:30.721Z,100.00
2022-10-22T15:58:01.831Z,100.00
2022-10-22T16:00:31.618Z,100.00
2022-10-22T16:02:59.853Z,100.00
2022-10-22T16:05:29.616Z,100.00
2022-10-22T16:07:57.643Z,100.00
2022-10-22T16:10:25.518Z,100.00
2022-10-22T16:12:54.608Z,100.00
2022-10-22T16:15:22.517Z,100.00
2022-10-22T16:17:53.722Z,100.00
2022-10-22T16:20:23.670Z,100.00
2022-10-22T16:22:53.097Z,100.00
2022-10-22T16:25:20.988Z,100.00
2022-10-22T16:27:50.792Z,100.00
2022-10-22T16:30:19.492Z,100.00
2022-10-22T16:32:47.509Z,100.00
2022-10-22T16:35:15.457Z,100.00
2022-10-22T16:37:43.693Z,100.00
2022-10-22T16:40:14.187Z,100.00
2022-10-22T16:42:44.057Z,100.00
2022-10-22T16:45:12.180Z,100.00
2022-10-22T16:47:42.877Z,100.00
2022-10-22T16:50:11.589Z,100.00
2022-10-22T16:52:39.865Z,100.00
2022-10-22T16:55:08.684Z,100.00
2022-10-22T16:57:38.127Z,100.00
2022-10-22T17:00:07.602Z,100.00
2022-10-22T17:02:37.312Z,100.00
2022-10-22T17:05:06.186Z,100.00
2022-10-22T17:07:34.399Z,100.00
2022-10-22T17:10:03.686Z,100.00
2022-10-22T17:12:35.196Z,100.00
2022-10-22T17:15:06.075Z,100.00
2022-10-22T17:17:34.321Z,100.00
2022-10-22T17:20:02.330Z,100.00
2022-10-22T17:22:30.514Z,100.00
2022-10-22T17:25:10.614Z,100.00
2022-10-22T17:27:39.427Z,100.00
2022-10-22T17:30:13.301Z,100.00
2022-10-22T17:32:41.305Z,100.00
2022-10-22T17:35:10.491Z,100.00
2022-10-22T17:37:45.935Z,100.00
2022-10-22T17:40:17.866Z,100.00
2022-10-22T17:42:46.694Z,100.00
2022-10-22T17:45:20.905Z,100.00
2022-10-22T17:47:51.036Z,100.00
2022-10-22T17:50:30.311Z,100.00
2022-10-22T17:53:02.680Z,100.00
2022-10-22T17:55:32.775Z,100.00
2022-10-22T17:58:01.441Z,100.00
2022-10-22T18:00:33.440Z,100.00
2022-10-22T18:03:12.261Z,100.00
2022-10-22T18:05:42.909Z,100.00
2022-10-22T18:08:12.565Z,100.00
2022-10-22T18:10:43.053Z,100.00
2022-10-22T18:13:16.559Z,100.00
2022-10-22T18:15:58.280Z,100.00
2022-10-22T18:18:26.583Z,100.00
2022-10-22T18:20:57.148Z,100.00
2022-10-22T18:23:29.437Z,100.00
2022-10-22T18:26:08.602Z,100.00
2022-10-22T18:28:39.458Z,100.00
2022-10-22T18:31:12.184Z,100.00
2022-10-22T18:33:45.576Z,100.00
2022-10-22T18:36:28.057Z,100.00
2022-10-22T18:39:01.608Z,100.00
2022-10-22T18:41:35.942Z,100.00
2022-10-22T18:44:06.987Z,100.00
2022-10-22T18:46:38.440Z,100.00
2022-10-22T18:49:08.149Z,100.00
2022-10-22T18:51:38.463Z,100.00
2022-10-22T18:54:25.814Z,100.00
2022-10-22T18:56:56.283Z,100.00
2022-10-22T18:59:32.762Z,100.00
2022-10-22T19:02:06.338Z,100.00
2022-10-22T19:04:38.354Z,100.00
2022-10-22T19:09:43.704Z,100.00
2022-10-22T19:12:15.854Z,100.00
2022-10-22T19:14:43.908Z,100.00
2022-10-22T19:17:13.774Z,100.00
2022-10-22T19:19:45.901Z,100.00
2022-10-22T19:22:14.144Z,100.00
2022-10-22T19:24:46.449Z,100.00
2022-10-22T19:27:14.783Z,100.00
2022-10-22T19:29:45.811Z,100.00
2022-10-22T19:32:20.102Z,100.00
2022-10-22T19:34:51.804Z,100.00
2022-10-22T19:37:20.228Z,100.00
2022-10-22T19:39:56.951Z,100.00
2022-10-22T19:42:32.802Z,100.00
2022-10-22T19:45:10.982Z,100.00
2022-10-22T19:47:44.788Z,100.00
2022-10-22T19:50:13.138Z,100.00
2022-10-22T19:52:41.876Z,100.00
2022-10-22T19:55:12.559Z,100.00
2022-10-22T19:58:11.672Z,100.00
2022-10-22T20:00:46.942Z,100.00
2022-10-22T20:03:24.016Z,100.00
2022-10-22T20:05:54.304Z,100.00
2022-10-22T20:08:24.696Z,100.00
2022-10-22T20:10:57.046Z,100.00
2022-10-22T20:13:25.206Z,100.00
2022-10-22T20:15:53.741Z,100.00
2022-10-22T20:18:26.068Z,100.00
2022-10-22T20:20:54.645Z,100.00
2022-10-22T20:23:24.674Z,100.00
2022-10-22T20:25:54.872Z,100.00
2022-10-22T20:28:23.836Z,100.00
2022-10-22T20:30:55.739Z,100.00
2022-10-22T20:33:27.881Z,100.00
2022-10-22T20:36:01.773Z,100.00
2022-10-22T20:38:32.672Z,100.00
2022-10-22T20:41:11.327Z,100.00
2022-10-22T20:43:39.391Z,100.00
2022-10-22T20:46:07.522Z,100.00
2022-10-22T20:48:39.282Z,100.00
2022-10-22T20:51:07.655Z,100.00
2022-10-22T20:53:35.674Z,100.00
2022-10-22T20:56:04.215Z,100.00
2022-10-22T20:58:33.010Z,100.00
2022-10-22T21:01:09.389Z,100.00
2022-10-22T21:03:39.125Z,100.00
2022-10-22T21:06:07.382Z,100.00
2022-10-22T21:08:35.319Z,100.00
2022-10-22T21:11:03.301Z,100.00
2022-10-22T21:13:33.016Z,100.00
2022-10-22T21:16:01.050Z,100.00
2022-10-22T21:18:28.974Z,100.00
2022-10-22T21:20:58.289Z,100.00
2022-10-22T21:23:26.404Z,100.00
2022-10-22T21:25:55.606Z,100.00
2022-10-22T21:28:23.758Z,100.00
2022-10-22T21:30:51.728Z,100.00
2022-10-22T21:33:19.797Z,100.00
2022-10-22T21:35:52.523Z,100.00
2022-10-22T21:38:23.314Z,100.00
2022-10-22T21:40:51.957Z,100.00
2022-10-22T21:43:19.909Z,100.00
2022-10-22T21:45:47.823Z,100.00
2022-10-22T21:48:18.259Z,100.00
2022-10-22T21:50:46.476Z,100.00
2022-10-22T21:53:14.359Z,100.00
2022-10-22T21:55:43.729Z,100.00
2022-10-22T21:58:11.727Z,100.00
2022-10-22T22:00:39.748Z,100.00
2022-10-22T22:03:08.627Z,100.00
2022-10-22T22:05:37.028Z,100.00
2022-10-22T22:08:05.217Z,100.00
2022-10-22T22:10:33.345Z,100.00
2022-10-22T22:13:02.707Z,100.00
2022-10-22T22:15:31.616Z,100.00
2022-10-22T22:17:59.564Z,100.00
2022-10-22T22:20:27.526Z,100.00
2022-10-22T22:22:55.390Z,100.00
2022-10-22T22:25:23.367Z,100.00
2022-10-22T22:27:51.306Z,100.00
2022-10-22T22:30:20.622Z,100.00
2022-10-22T22:32:48.493Z,100.00
2022-10-22T22:35:16.581Z,100.00
2022-10-22T22:37:44.615Z,100.00
2022-10-22T22:40:13.512Z,100.00
2022-10-22T22:42:41.428Z,100.00
2022-10-22T22:45:09.775Z,100.00
2022-10-22T22:47:40.412Z,100.00
2022-10-22T22:50:09.297Z,100.00
2022-10-22T22:52:37.211Z,100.00
2022-10-22T22:55:06.045Z,100.00
2022-10-22T22:57:34.023Z,100.00
2022-10-22T23:00:01.934Z,100.00
2022-10-22T23:02:29.789Z,100.00
2022-10-22T23:04:59.098Z,100.00
2022-10-22T23:07:29.438Z,100.00
2022-10-22T23:09:57.349Z,100.00
2022-10-22T23:12:25.237Z,100.00
2022-10-22T23:14:53.439Z,100.00
2022-10-22T23:17:21.390Z,100.00
2022-10-22T23:19:49.278Z,100.00
2022-10-22T23:22:18.525Z,100.00
2022-10-22T23:24:46.384Z,100.00
2022-10-22T23:27:14.314Z,100.00
2022-10-22T23:29:42.243Z,100.00
2022-10-22T23:32:15.259Z,100.00
2022-10-22T23:34:43.357Z,100.00
2022-10-22T23:37:12.996Z,100.00
2022-10-22T23:39:42.278Z,100.00
2022-10-22T23:42:10.263Z,100.00
2022-10-22T23:44:38.168Z,100.00
2022-10-22T23:47:06.198Z,100.00
2022-10-22T23:49:34.170Z,100.00
2022-10-22T23:52:02.141Z,100.00
2022-10-22T23:54:30.072Z,100.00
2022-10-22T23:56:59.354Z,100.00
2022-10-22T23:59:27.410Z,100.00
